Time;durP1;ratioP1;P1;durP2;ratioP2;P2;SDS_P1;SDS_P2;PMS_P1;PMS_P2;Temp;Humidity;BMP_temperature;BMP_pressure;BME280_temperature;BME280_humidity;BME280_pressure;Samples;Min_cycle;Max_cycle;Signal;HPM_P1;HPM_P2
2023/09/16 00:01:37;;;;;;;18.80;13.80;;;;;;;-141.97;72.79;47517.16;5053644;28;20280;-82
2023/09/16 00:04:03;;;;;;;21.73;13.97;;;;;;;-141.97;72.95;47595.97;5054149;28;20196;-80
2023/09/16 00:06:29;;;;;;;18.70;13.37;;;;;;;-141.97;73.28;47515.22;5055060;28;20174;-80
2023/09/16 00:08:54;;;;;;;21.40;13.80;;;;;;;-141.97;73.77;47526.75;5055181;28;20170;-80
2023/09/16 00:11:21;;;;;;;19.90;14.20;;;;;;;-141.97;73.66;47446.03;5055143;28;20157;-81
2023/09/16 00:13:47;;;;;;;19.07;14.07;;;;;;;-141.97;73.54;47530.59;5055818;28;20284;-82
2023/09/16 00:16:15;;;;;;;17.60;14.13;;;;;;;-141.97;74.32;47492.16;5057279;28;20162;-82
2023/09/16 00:18:41;;;;;;;20.33;14.17;;;;;;;-141.97;74.58;47534.44;5059276;28;20205;-81
2023/09/16 00:21:06;;;;;;;23.27;14.60;;;;;;;-141.97;74.15;47442.19;5055235;28;20186;-82
2023/09/16 00:23:31;;;;;;;20.73;15.03;;;;;;;-141.97;74.44;47499.84;5054938;28;20181;-82
2023/09/16 00:25:57;;;;;;;19.47;14.27;;;;;;;-141.97;74.56;47692.06;5054145;28;20695;-82
2023/09/16 00:28:25;;;;;;;21.43;15.13;;;;;;;-141.97;74.82;47484.47;5053625;28;20197;-82
2023/09/16 00:30:51;;;;;;;19.90;14.53;;;;;;;-141.97;74.89;47407.59;5055742;28;20174;-82
2023/09/16 00:33:16;;;;;;;19.40;14.17;;;;;;;-141.97;74.55;47530.59;5054114;28;20177;-82
2023/09/16 00:35:42;;;;;;;20.87;14.80;;;;;;;-141.97;74.67;47407.59;5051792;28;20173;-82
2023/09/16 00:38:09;;;;;;;21.13;15.47;;;;;;;-141.97;74.54;47301.91;5052702;28;20199;-83
2023/09/16 00:40:35;;;;;;;21.80;15.37;;;;;;;-141.97;74.31;47663.22;5052599;28;20716;-82
2023/09/16 00:43:00;;;;;;;21.93;15.97;;;;;;;-141.97;75.71;47380.69;5050686;28;20193;-81
2023/09/16 00:45:25;;;;;;;24.90;15.97;;;;;;;-141.97;75.37;47526.75;5052447;28;20169;-82
2023/09/16 00:47:51;;;;;;;22.33;16.17;;;;;;;-141.97;75.37;47603.66;5050464;28;20261;-83
2023/09/16 00:50:17;;;;;;;21.40;16.13;;;;;;;-141.97;76.32;47419.13;5051765;28;20665;-83
2023/09/16 00:52:55;;;;;;;29.63;17.00;;;;;;;-141.97;76.11;47501.78;5050289;28;20235;-82
2023/09/16 00:55:22;;;;;;;24.30;15.90;;;;;;;-141.97;75.85;47421.06;5051717;28;20161;-83
2023/09/16 00:57:50;;;;;;;26.90;16.00;;;;;;;-141.97;76.81;47511.38;5042721;28;20282;-82
2023/09/16 01:00:16;;;;;;;21.17;15.63;;;;;;;-141.97;76.63;47515.22;5044393;28;20201;-82
2023/09/16 01:02:43;;;;;;;21.77;16.17;;;;;;;-141.97;76.17;47509.47;5036105;28;20277;-83
2023/09/16 01:05:14;;;;;;;24.87;16.13;;;;;;;-141.97;76.28;47469.09;5050177;28;20164;-85
2023/09/16 01:07:46;;;;;;;21.77;16.23;;;;;;;-141.97;76.22;47461.41;5039286;28;20166;-83
2023/09/16 01:10:18;;;;;;;26.47;15.90;;;;;;;-141.97;75.84;47553.69;5044249;28;20213;-83
2023/09/16 01:12:44;;;;;;;20.83;15.73;;;;;;;-141.97;77.16;47467.19;5047663;28;20170;-82
2023/09/16 01:15:13;;;;;;;24.87;16.47;;;;;;;-141.97;77.58;47457.56;5031984;28;20241;-84
2023/09/16 01:17:45;;;;;;;23.70;15.90;;;;;;;-141.97;78.46;47449.88;5032509;28;20170;-82
2023/09/16 01:20:12;;;;;;;24.10;16.57;;;;;;;-141.97;78.33;47547.91;5047569;28;20170;-83
2023/09/16 01:22:44;;;;;;;26.53;18.10;;;;;;;-141.97;79.03;47540.22;5030605;28;20185;-82
2023/09/16 01:25:10;;;;;;;28.07;18.73;;;;;;;-141.97;79.82;47409.53;5047339;28;20170;-82
2023/09/16 01:27:37;;;;;;;25.43;18.87;;;;;;;-141.97;80.57;47361.47;5031841;28;20166;-82
2023/09/16 01:30:05;;;;;;;28.57;19.43;;;;;;;-141.97;79.96;47672.84;5013601;28;20170;-83
2023/09/16 01:32:45;;;;;;;28.63;18.10;;;;;;;-141.97;80.39;47669.00;5013373;28;20240;-83
2023/09/16 01:35:14;;;;;;;32.63;19.03;;;;;;;-141.97;79.96;47569.06;5013498;28;20249;-83
2023/09/16 01:37:43;;;;;;;31.50;18.77;;;;;;;-141.97;81.25;47707.44;5031526;28;20197;-82
2023/09/16 01:40:11;;;;;;;26.93;18.57;;;;;;;-141.97;80.83;47655.53;5013145;28;20218;-83
2023/09/16 01:42:37;;;;;;;25.37;19.07;;;;;;;-141.97;82.08;47394.16;5030298;28;20346;-82
2023/09/16 01:45:04;;;;;;;26.97;19.60;;;;;;;-141.97;83.48;47373.00;5032374;28;20768;-82
2023/09/16 01:47:29;;;;;;;30.80;20.00;;;;;;;-141.97;84.23;47440.28;5033199;28;20228;-82
2023/09/16 01:49:55;;;;;;;28.27;20.33;;;;;;;-141.97;84.78;47542.16;5032081;28;20174;-82
2023/09/16 01:52:20;;;;;;;27.77;19.80;;;;;;;-141.97;84.14;47465.25;5034238;28;20163;-83
2023/09/16 01:54:46;;;;;;;25.63;19.30;;;;;;;-141.97;83.87;47584.44;5016811;28;20166;-83
2023/09/16 01:57:11;;;;;;;30.27;19.93;;;;;;;-141.97;84.58;47449.88;5033817;28;20186;-82
2023/09/16 01:59:37;;;;;;;28.30;20.07;;;;;;;-141.97;85.04;47699.75;5017408;28;20169;-83
2023/09/16 02:02:02;;;;;;;30.40;19.27;;;;;;;-141.97;84.14;47428.75;5039151;28;20205;-83
2023/09/16 02:04:28;;;;;;;28.93;19.53;;;;;;;-141.97;83.38;47530.59;5035897;28;20185;-83
2023/09/16 02:06:54;;;;;;;28.43;19.67;;;;;;;-141.97;81.92;47507.53;5059609;28;20177;-82
2023/09/16 02:09:19;;;;;;;28.27;20.30;;;;;;;-141.97;82.29;47465.25;5070930;28;20267;-84
2023/09/16 02:11:45;;;;;;;28.87;20.10;;;;;;;-141.97;83.33;47699.75;5050900;28;20189;-82
2023/09/16 02:14:12;;;;;;;28.60;20.60;;;;;;;-141.97;84.00;47522.91;5052558;28;20312;-82
2023/09/16 02:16:38;;;;;;;29.13;20.87;;;;;;;-141.97;83.25;47699.75;5052085;28;20175;-82
2023/09/16 02:19:03;;;;;;;29.27;20.40;;;;;;;-141.97;82.50;47544.06;5034956;28;20172;-82
2023/09/16 02:21:29;;;;;;;26.40;20.37;;;;;;;-141.97;81.81;47584.44;5052775;28;20242;-82
2023/09/16 02:23:55;;;;;;;26.10;19.70;;;;;;;-141.97;82.37;47497.94;5053794;28;20252;-82
2023/09/16 02:26:20;;;;;;;27.93;19.93;;;;;;;-141.97;82.72;47422.97;5036173;28;20176;-83
2023/09/16 02:28:46;;;;;;;27.90;20.00;;;;;;;-141.97;82.38;47446.03;5035821;28;20620;-83
2023/09/16 02:31:11;;;;;;;27.67;20.00;;;;;;;-141.97;82.24;47451.81;5054155;28;20181;-81
2023/09/16 02:33:37;;;;;;;28.63;20.77;;;;;;;-141.97;82.99;47369.16;5033931;28;20263;-82
2023/09/16 02:36:04;;;;;;;29.73;21.40;;;;;;;-141.97;83.64;47501.78;5050386;28;20161;-83
2023/09/16 02:38:29;;;;;;;30.60;21.87;;;;;;;-141.97;84.26;47398.00;5054124;28;20169;-83
2023/09/16 02:40:55;;;;;;;31.93;22.63;;;;;;;-141.97;84.77;47574.81;5052965;28;20239;-82
2023/09/16 02:43:20;;;;;;;33.40;23.00;;;;;;;-141.97;84.66;47403.75;5073062;28;20204;-81
2023/09/16 02:45:45;;;;;;;35.77;23.20;;;;;;;-141.97;84.31;47578.66;5063395;28;20182;-81
2023/09/16 02:48:11;;;;;;;29.20;21.93;;;;;;;-141.97;84.60;47730.50;5052003;28;20169;-81
2023/09/16 02:50:39;;;;;;;32.77;23.87;;;;;;;-141.97;84.43;47442.19;5049819;28;20583;-81
2023/09/16 02:53:06;;;;;;;35.97;24.03;;;;;;;-141.97;84.10;47563.28;5031822;28;20170;-81
2023/09/16 02:55:32;;;;;;;33.17;22.90;;;;;;;-141.97;84.22;47469.09;5049664;28;20201;-82
2023/09/16 02:57:59;;;;;;;36.53;23.63;;;;;;;-141.97;84.06;47561.38;5049388;28;20174;-82
2023/09/16 03:00:24;;;;;;;32.77;23.60;;;;;;;-141.97;84.28;47563.28;5048868;28;20166;-82
2023/09/16 03:02:50;;;;;;;39.50;24.20;;;;;;;-141.97;85.14;47561.38;5053600;28;20238;-81
2023/09/16 03:05:16;;;;;;;34.03;24.60;;;;;;;-141.97;85.32;47532.53;5053615;28;20176;-82
2023/09/16 03:07:43;;;;;;;36.07;23.97;;;;;;;-141.97;84.16;47505.63;5057706;28;20177;-81
2023/09/16 03:10:09;;;;;;;36.70;24.87;;;;;;;-141.97;83.90;47526.75;5050840;28;20183;-78
2023/09/16 03:12:34;;;;;;;34.60;23.20;;;;;;;-141.97;83.45;47449.88;5067068;28;20487;-82
2023/09/16 03:14:59;;;;;;;32.67;24.37;;;;;;;-141.97;83.40;47440.28;5042273;28;20177;-82
2023/09/16 03:17:25;;;;;;;34.40;23.97;;;;;;;-141.97;83.80;47534.44;5036745;28;20200;-81
2023/09/16 03:19:50;;;;;;;36.90;24.37;;;;;;;-141.97;83.13;47549.84;5036024;28;20173;-82
2023/09/16 03:22:16;;;;;;;39.47;24.47;;;;;;;-141.97;82.61;47726.66;5035823;28;20185;-81
2023/09/16 03:24:42;;;;;;;32.73;22.50;;;;;;;-141.97;82.34;47522.91;5053785;28;20774;-82
2023/09/16 03:27:07;;;;;;;38.07;23.70;;;;;;;-141.97;83.13;47768.94;5035618;28;20172;-80
2023/09/16 03:29:33;;;;;;;33.80;23.33;;;;;;;-141.97;82.67;47576.75;5054199;28;20166;-81
2023/09/16 03:31:58;;;;;;;37.83;23.93;;;;;;;-141.97;82.96;47580.59;5053969;28;20154;-81
2023/09/16 03:34:23;;;;;;;33.73;24.10;;;;;;;-141.97;82.38;47542.16;5053415;28;20197;-80
2023/09/16 03:36:49;;;;;;;32.33;22.70;;;;;;;-141.97;81.94;47592.13;5052656;28;20219;-81
2023/09/16 03:39:15;;;;;;;30.73;22.53;;;;;;;-141.97;81.67;47453.72;5053704;28;20166;-80
2023/09/16 03:41:40;;;;;;;36.90;23.67;;;;;;;-141.97;81.75;47449.88;5061704;28;20232;-81
2023/09/16 03:44:05;;;;;;;34.30;23.30;;;;;;;-141.97;81.09;47534.44;5070028;28;20153;-80
2023/09/16 03:46:32;;;;;;;32.97;23.23;;;;;;;-141.97;80.87;47536.38;5075143;28;20189;-80
2023/09/16 03:48:57;;;;;;;32.20;23.07;;;;;;;-141.97;81.20;47530.59;5042989;28;20177;-83
2023/09/16 03:51:23;;;;;;;30.37;23.17;;;;;;;-141.97;81.34;47546.00;5038874;28;20181;-82
2023/09/16 03:53:49;;;;;;;31.93;22.30;;;;;;;-141.97;81.02;47563.28;5054023;28;20668;-82
2023/09/16 03:56:14;;;;;;;31.57;22.87;;;;;;;-141.97;80.76;47730.50;5054035;28;20174;-82
2023/09/16 03:58:40;;;;;;;34.70;23.57;;;;;;;-141.97;80.38;47572.91;5036305;28;20241;-82
2023/09/16 04:01:05;;;;;;;33.67;22.93;;;;;;;-141.97;80.30;47546.00;5057853;28;20271;-82
2023/09/16 04:03:31;;;;;;;37.63;23.67;;;;;;;-141.97;80.25;47569.06;5056585;28;20618;-82
2023/09/16 04:05:58;;;;;;;36.10;24.40;;;;;;;-141.97;80.21;47496.00;5053601;28;20239;-82
2023/09/16 04:08:27;;;;;;;32.10;23.57;;;;;;;-141.97;79.90;47557.53;5053436;28;20157;-83
2023/09/16 04:10:53;;;;;;;32.90;22.63;;;;;;;-141.97;80.71;47478.72;5035173;28;20184;-83
2023/09/16 04:13:21;;;;;;;32.00;23.33;;;;;;;-141.97;80.47;47572.91;5052728;28;20176;-82
2023/09/16 04:15:47;;;;;;;30.37;22.03;;;;;;;-141.97;79.79;47565.22;5052734;28;20162;-82
2023/09/16 04:18:12;;;;;;;31.90;22.27;;;;;;;-141.97;79.39;47519.06;5035018;28;20195;-82
2023/09/16 04:20:38;;;;;;;28.43;22.10;;;;;;;-141.97;79.94;47569.06;5052600;28;20177;-83
2023/09/16 04:23:03;;;;;;;31.77;22.20;;;;;;;-141.97;79.33;47494.09;5052937;28;20251;-82
2023/09/16 04:25:29;;;;;;;32.40;23.87;;;;;;;-141.97;78.99;47534.44;5052490;28;20165;-82
2023/09/16 04:27:54;;;;;;;32.97;22.90;;;;;;;-141.97;78.81;47480.63;5034784;28;20175;-83
2023/09/16 04:30:20;;;;;;;31.90;21.77;;;;;;;-141.97;78.75;47542.16;5057450;28;20230;-84
2023/09/16 04:32:46;;;;;;;29.97;22.60;;;;;;;-141.97;79.09;47534.44;5049868;28;20174;-82
2023/09/16 04:35:11;;;;;;;31.07;22.60;;;;;;;-141.97;78.80;47665.16;5077246;28;20161;-83
2023/09/16 04:37:36;;;;;;;30.27;22.13;;;;;;;-141.97;78.94;47707.44;5043816;28;20272;-83
2023/09/16 04:40:21;;;;;;;29.87;22.27;;;;;;;-141.97;78.90;47446.03;5035615;28;20712;-83
2023/09/16 04:42:47;;;;;;;36.77;22.60;;;;;;;-141.97;78.76;47469.09;5035486;28;20243;-83
2023/09/16 04:45:14;;;;;;;38.03;22.73;;;;;;;-141.97;78.57;47415.28;5036282;28;20169;-83
2023/09/16 04:47:40;;;;;;;35.50;22.63;;;;;;;-141.97;78.33;47553.69;5035591;28;20183;-84
2023/09/16 04:50:07;;;;;;;37.00;22.10;;;;;;;-141.97;78.55;47549.84;5052994;28;20231;-83
2023/09/16 04:52:32;;;;;;;34.83;23.33;;;;;;;-141.97;78.19;47467.19;5052540;28;20164;-83
2023/09/16 04:54:58;;;;;;;28.23;21.53;;;;;;;-141.97;76.80;47521.00;5035292;28;20157;-83
2023/09/16 04:57:23;;;;;;;29.47;21.00;;;;;;;-141.97;75.69;47403.75;5053302;28;20239;-83
2023/09/16 04:59:48;;;;;;;44.60;23.83;;;;;;;-141.97;75.29;47688.22;5034772;28;20173;-83
2023/09/16 05:02:14;;;;;;;29.37;19.33;;;;;;;-141.97;73.72;47534.44;5036043;28;20193;-84
2023/09/16 05:04:39;;;;;;;41.77;22.13;;;;;;;-141.97;72.99;47546.00;5056052;28;20165;-83
2023/09/16 05:07:05;;;;;;;35.30;22.33;;;;;;;-141.97;74.87;47524.84;5070485;28;20161;-83
2023/09/16 05:09:31;;;;;;;41.63;23.63;;;;;;;-141.97;75.64;47663.22;5067104;28;20173;-83
2023/09/16 05:11:56;;;;;;;39.53;25.77;;;;;;;-141.97;75.67;47720.91;5050265;28;20165;-83
2023/09/16 05:14:23;;;;;;;41.47;27.70;;;;;;;-141.97;76.05;47565.22;5062096;28;20603;-82
2023/09/16 05:16:48;;;;;;;37.93;27.17;;;;;;;-141.97;76.70;47561.38;5056379;28;20174;-82
2023/09/16 05:19:13;;;;;;;40.17;24.43;;;;;;;-141.97;77.40;47540.22;5061583;28;20202;-82
2023/09/16 05:21:39;;;;;;;38.57;25.10;;;;;;;-141.97;77.75;47549.84;5059778;28;20253;-82
2023/09/16 05:24:05;;;;;;;37.67;25.17;;;;;;;-141.97;77.95;47532.53;5058969;28;20165;-82
2023/09/16 05:26:31;;;;;;;41.87;29.20;;;;;;;-141.97;78.32;47582.50;5057493;28;20187;-85
2023/09/16 05:28:57;;;;;;;40.73;27.57;;;;;;;-141.97;77.94;47480.63;5040666;28;20173;-82
2023/09/16 05:31:26;;;;;;;42.93;27.33;;;;;;;-141.97;78.10;47476.78;5038316;28;20193;-84
2023/09/16 05:33:51;;;;;;;37.77;22.83;;;;;;;-141.97;77.78;47555.59;5053871;28;20167;-82
2023/09/16 05:36:18;;;;;;;45.63;26.70;;;;;;;-141.97;78.35;47555.59;5057925;28;20165;-82
2023/09/16 05:38:43;;;;;;;39.73;23.20;;;;;;;-141.97;78.14;47588.28;5054551;28;20174;-82
2023/09/16 05:41:08;;;;;;;42.27;22.40;;;;;;;-141.97;78.02;47540.22;5053830;28;20675;-84
2023/09/16 05:43:35;;;;;;;39.47;23.40;;;;;;;-141.97;78.09;47553.69;5059396;28;20193;-85
2023/09/16 05:46:01;;;;;;;46.90;24.57;;;;;;;-141.97;78.06;47392.22;5063134;28;20157;-85
2023/09/16 05:48:28;;;;;;;55.10;27.10;;;;;;;-141.97;78.34;47588.28;5039648;28;20166;-85
2023/09/16 05:50:58;;;;;;;46.37;24.17;;;;;;;-141.97;77.63;47555.59;5034541;28;20176;-82
2023/09/16 05:53:24;;;;;;;38.30;23.13;;;;;;;-141.97;76.81;47555.59;5057737;28;20161;-82
2023/09/16 05:55:49;;;;;;;35.83;23.00;;;;;;;-141.97;76.96;47275.00;5057324;28;20157;-82
2023/09/16 05:58:15;;;;;;;41.40;25.70;;;;;;;-141.97;76.23;47540.22;5037924;28;20559;-82
2023/09/16 06:00:40;;;;;;;38.30;23.90;;;;;;;-141.97;76.19;47453.72;5056334;28;20165;-82
2023/09/16 06:03:05;;;;;;;38.10;25.30;;;;;;;-141.97;76.37;47530.59;5057705;28;20197;-81
2023/09/16 06:05:33;;;;;;;39.07;23.10;;;;;;;-141.97;76.92;47574.81;5057390;28;20173;-81
2023/09/16 06:07:58;;;;;;;34.43;22.77;;;;;;;-141.97;77.61;47519.06;5068401;28;20521;-82
2023/09/16 06:10:24;;;;;;;36.30;24.03;;;;;;;-141.97;78.13;47469.09;5056322;28;20226;-83
2023/09/16 06:12:49;;;;;;;37.10;24.97;;;;;;;-141.97;78.80;47578.66;5055806;28;20539;-82
2023/09/16 06:15:15;;;;;;;36.87;24.90;;;;;;;-141.97;79.54;47699.75;5053661;28;20238;-82
2023/09/16 06:17:40;;;;;;;35.10;25.40;;;;;;;-141.97;80.16;47734.34;5036497;28;20173;-82
2023/09/16 06:20:06;;;;;;;39.03;26.63;;;;;;;-141.97;80.32;47532.53;5060072;28;20196;-82
2023/09/16 06:22:31;;;;;;;39.47;27.43;;;;;;;-141.97;80.52;47534.44;5060021;28;20223;-84
2023/09/16 06:24:57;;;;;;;34.97;27.00;;;;;;;-141.97;80.52;47559.44;5053295;28;20594;-85
2023/09/16 06:27:22;;;;;;;39.93;26.30;;;;;;;-141.97;80.39;47615.19;5053141;28;20161;-84
2023/09/16 06:29:48;;;;;;;36.77;26.03;;;;;;;-141.97;80.13;47474.88;5052081;28;20169;-84
2023/09/16 06:32:14;;;;;;;37.30;27.03;;;;;;;-141.97;81.08;47745.88;5051434;28;20172;-84
2023/09/16 06:34:39;;;;;;;36.67;25.83;;;;;;;-141.97;80.18;47432.59;5035730;28;20172;-84
2023/09/16 06:37:05;;;;;;;38.97;26.30;;;;;;;-141.97;79.89;47424.91;5057164;28;20169;-85
2023/09/16 06:39:32;;;;;;;41.03;25.90;;;;;;;-141.97;79.25;47444.13;5039670;28;20169;-85
2023/09/16 06:41:57;;;;;;;32.73;24.70;;;;;;;-141.97;78.77;47649.78;5041152;28;20296;-84
2023/09/16 06:44:23;;;;;;;34.77;25.07;;;;;;;-141.97;79.08;47501.78;5040399;28;20258;-82
2023/09/16 06:46:48;;;;;;;39.63;28.33;;;;;;;-141.97;79.78;47703.59;5056527;28;20176;-83
2023/09/16 06:49:13;;;;;;;53.90;36.43;;;;;;;-141.97;80.37;47524.84;5056476;28;20200;-84
2023/09/16 06:51:39;;;;;;;36.90;27.20;;;;;;;-141.97;80.93;47603.66;5057801;28;20158;-83
2023/09/16 06:54:04;;;;;;;41.13;26.53;;;;;;;-141.97;83.38;47561.38;5055477;28;20169;-82
2023/09/16 06:56:30;;;;;;;37.77;26.00;;;;;;;-141.97;85.48;47784.34;5058904;28;20165;-81
2023/09/16 06:58:56;;;;;;;43.57;27.37;;;;;;;-141.97;87.24;47515.22;5074091;28;20166;-81
2023/09/16 07:01:23;;;;;;;33.77;25.67;;;;;;;-141.97;87.68;47578.66;5068456;28;20154;-81
2023/09/16 07:03:48;;;;;;;42.23;29.33;;;;;;;-141.97;89.92;47753.56;5055295;28;20210;-81
2023/09/16 07:06:14;;;;;;;42.27;28.77;;;;;;;-141.97;90.76;47557.53;5054967;28;20744;-80
2023/09/16 07:08:39;;;;;;;44.07;29.47;;;;;;;-141.97;90.50;47584.44;5054650;28;20165;-80
2023/09/16 07:11:04;;;;;;;42.33;29.53;;;;;;;-141.97;91.34;47609.41;5054717;28;20614;-80
2023/09/16 07:13:30;;;;;;;44.93;29.07;;;;;;;-141.97;92.13;47592.13;5054046;28;20165;-81
2023/09/16 07:15:56;;;;;;;39.53;29.13;;;;;;;-141.97;91.36;47594.03;5055052;28;20386;-80
2023/09/16 07:18:22;;;;;;;42.90;29.43;;;;;;;-141.97;91.41;47490.25;5054626;28;20168;-80
2023/09/16 07:20:48;;;;;;;48.47;31.17;;;;;;;-141.97;92.30;47686.31;5054574;28;20170;-84
2023/09/16 07:23:14;;;;;;;41.77;29.67;;;;;;;-141.97;92.32;47496.00;5037322;28;20204;-80
2023/09/16 07:25:39;;;;;;;43.60;29.33;;;;;;;-141.97;91.93;47615.19;5062672;28;20170;-80
2023/09/16 07:28:07;;;;;;;43.00;29.20;;;;;;;-141.97;91.22;47609.41;5045053;28;20197;-78
2023/09/16 07:30:36;;;;;;;45.90;29.67;;;;;;;-141.97;90.80;47557.53;5063987;28;20154;-80
2023/09/16 07:33:02;;;;;;;43.43;29.03;;;;;;;-141.97;90.68;47511.38;5068101;28;20154;-82
2023/09/16 07:35:28;;;;;;;43.20;29.40;;;;;;;-141.97;90.58;47434.50;5064688;28;20237;-81
2023/09/16 07:37:53;;;;;;;42.77;29.27;;;;;;;-141.97;90.26;47599.81;5031908;28;20193;-82
2023/09/16 07:40:18;;;;;;;41.97;28.40;;;;;;;-141.97;89.88;47580.59;5034677;28;20255;-80
2023/09/16 07:42:44;;;;;;;38.20;26.97;;;;;;;-141.97;88.51;47736.28;5033877;28;20229;-80
2023/09/16 07:45:10;;;;;;;37.90;26.40;;;;;;;-141.97;87.96;47565.22;5016352;28;20174;-81
2023/09/16 07:47:35;;;;;;;35.10;25.47;;;;;;;-141.97;87.23;47570.97;5034363;28;20578;-82
2023/09/16 07:50:01;;;;;;;37.00;24.97;;;;;;;-141.97;85.80;47594.03;5038038;28;20170;-81
2023/09/16 07:52:28;;;;;;;32.70;24.03;;;;;;;-141.97;85.42;47507.53;5034111;28;20675;-81
2023/09/16 07:54:57;;;;;;;35.50;25.40;;;;;;;-141.97;85.68;47507.53;5033831;28;20171;-81
2023/09/16 07:57:23;;;;;;;35.37;24.30;;;;;;;-141.97;84.73;47705.53;5034162;28;20162;-80
2023/09/16 07:59:48;;;;;;;33.13;23.73;;;;;;;-141.97;84.28;47592.13;5038001;28;20226;-79
2023/09/16 08:02:14;;;;;;;35.27;24.67;;;;;;;-141.97;85.16;47730.50;5039912;28;20335;-79
2023/09/16 08:04:39;;;;;;;35.90;23.83;;;;;;;-141.97;85.65;47632.47;5035520;28;20216;-80
2023/09/16 08:07:05;;;;;;;39.90;25.63;;;;;;;-141.97;86.72;47532.53;5034051;28;20249;-83
2023/09/16 08:09:30;;;;;;;33.67;24.67;;;;;;;-141.97;86.94;47570.97;5033634;28;20166;-81
2023/09/16 08:11:55;;;;;;;34.43;24.10;;;;;;;-141.97;86.07;47599.81;5032594;28;20189;-81
2023/09/16 08:14:21;;;;;;;32.93;24.07;;;;;;;-141.97;85.21;47747.81;5034900;28;20177;-80
2023/09/16 08:16:46;;;;;;;32.30;23.50;;;;;;;-141.97;85.84;47803.56;5035236;28;20556;-81
2023/09/16 08:19:12;;;;;;;33.90;24.67;;;;;;;-141.97;87.37;47540.22;5043926;28;20170;-80
2023/09/16 08:21:37;;;;;;;33.87;24.27;;;;;;;-141.97;88.47;47597.88;5032044;28;20205;-80
2023/09/16 08:24:03;;;;;;;36.33;25.70;;;;;;;-141.97;89.63;47594.03;5040490;28;20158;-81
2023/09/16 08:26:29;;;;;;;37.77;25.63;;;;;;;-141.97;91.62;47586.34;5034446;28;20190;-81
2023/09/16 08:28:54;;;;;;;37.50;25.33;;;;;;;-141.97;93.83;47682.47;5033211;28;20203;-80
2023/09/16 08:31:20;;;;;;;36.53;26.40;;;;;;;-141.97;94.34;47449.88;5033242;28;20220;-79
2023/09/16 08:33:45;;;;;;;36.80;25.93;;;;;;;-141.97;94.90;47553.69;5032689;28;20599;-81
2023/09/16 08:36:10;;;;;;;39.77;26.87;;;;;;;-141.97;96.02;47580.59;5032982;28;20620;-81
2023/09/16 08:38:36;;;;;;;39.63;27.13;;;;;;;-141.97;96.63;47694.00;5032732;28;20172;-81
2023/09/16 08:41:14;;;;;;;42.93;28.63;;;;;;;-141.97;97.12;47630.56;5032524;28;20218;-81
2023/09/16 08:43:40;;;;;;;44.70;30.90;;;;;;;-141.97;98.36;47394.16;5015033;28;20193;-81
2023/09/16 08:46:10;;;;;;;45.23;30.17;;;;;;;-141.97;98.13;47743.97;5015459;28;20681;-80
2023/09/16 08:48:42;;;;;;;39.03;28.43;;;;;;;-141.97;96.72;47592.13;5034532;28;20166;-80
2023/09/16 08:51:11;;;;;;;38.23;28.40;;;;;;;-141.97;95.10;47557.53;5033530;28;20185;-80
2023/09/16 08:53:39;;;;;;;39.43;27.97;;;;;;;-141.97;94.55;47486.41;5038110;28;20158;-81
2023/09/16 08:56:05;;;;;;;34.10;25.17;;;;;;;-141.97;90.98;47605.56;5031632;28;20204;-82
2023/09/16 08:58:39;;;;;;;41.97;25.50;;;;;;;-141.97;90.59;47638.25;5048015;28;20207;-81
2023/09/16 09:01:05;;;;;;;36.23;23.93;;;;;;;-141.97;90.10;47517.16;5028819;28;20174;-81
2023/09/16 09:03:32;;;;;;;36.07;23.57;;;;;;;-141.97;88.72;47519.06;5040573;28;20742;-80
2023/09/16 09:05:58;;;;;;;33.70;21.80;;;;;;;-141.97;87.06;47572.91;5033105;28;20154;-81
2023/09/16 09:08:24;;;;;;;29.87;21.37;;;;;;;-141.97;84.90;47599.81;5014876;28;20582;-81
2023/09/16 09:10:50;;;;;;;30.20;22.80;;;;;;;-141.97;83.12;47578.66;5014687;28;20166;-79
2023/09/16 09:13:15;;;;;;;30.03;20.90;;;;;;;-141.97;81.55;47576.75;5032286;28;20646;-80
2023/09/16 09:15:43;;;;;;;29.53;20.60;;;;;;;-141.97;81.86;47584.44;5032264;28;20170;-81
2023/09/16 09:18:11;;;;;;;27.17;20.57;;;;;;;-141.97;79.04;47549.84;5032175;28;20662;-79
2023/09/16 09:20:37;;;;;;;27.53;19.70;;;;;;;-141.97;77.93;47503.69;5035224;28;20177;-80
2023/09/16 09:23:02;;;;;;;28.70;19.67;;;;;;;-141.97;75.09;47734.34;5054437;28;20194;-85
2023/09/16 09:25:29;;;;;;;30.03;20.43;;;;;;;-141.97;76.28;47392.22;5040185;28;20174;-80
2023/09/16 09:27:57;;;;;;;25.67;18.70;;;;;;;-141.97;74.28;47542.16;5031690;28;20170;-80
2023/09/16 09:30:29;;;;;;;26.47;19.60;;;;;;;-141.97;74.60;47557.53;5034064;28;20536;-80
2023/09/16 09:32:56;;;;;;;29.13;19.30;;;;;;;-141.97;75.76;47580.59;5033705;28;20154;-80
2023/09/16 09:35:23;;;;;;;27.83;20.10;;;;;;;-141.97;75.38;47570.97;5016278;28;20257;-79
2023/09/16 09:37:49;;;;;;;27.90;20.17;;;;;;;-141.97;75.41;47572.91;5042393;28;20189;-81
2023/09/16 09:40:15;;;;;;;24.80;19.87;;;;;;;-141.97;74.42;47469.09;5038709;28;20272;-81
2023/09/16 09:42:48;;;;;;;24.60;18.40;;;;;;;-141.97;71.89;47434.50;5021386;28;20223;-78
2023/09/16 09:45:16;;;;;;;25.60;19.13;;;;;;;-141.97;71.25;47540.22;5019968;28;20837;-80
2023/09/16 09:47:43;;;;;;;23.93;18.67;;;;;;;-141.97;70.16;47588.28;5032595;28;20185;-80
2023/09/16 09:50:16;;;;;;;24.53;18.73;;;;;;;-141.97;68.95;47578.66;5031951;28;20158;-80
2023/09/16 09:52:50;;;;;;;23.73;19.20;;;;;;;-141.97;68.16;47553.69;5031775;28;20154;-80
2023/09/16 09:55:17;;;;;;;25.53;19.60;;;;;;;-141.97;67.35;47555.59;5031663;28;20252;-80
2023/09/16 09:57:47;;;;;;;22.77;18.88;;;;;;;-141.97;64.17;47540.22;5031379;28;20191;-80
2023/09/16 10:00:16;;;;;;;26.00;19.33;;;;;;;-141.97;60.99;47472.94;5031729;28;20170;-80
2023/09/16 10:02:43;;;;;;;25.92;18.80;;;;;;;-141.97;60.41;47507.53;5013944;28;20194;-80
2023/09/16 10:05:16;;;;;;;23.17;17.85;;;;;;;-141.97;61.54;47494.09;5015545;28;20531;-80
2023/09/16 10:07:43;;;;;;;19.88;16.38;;;;;;;-141.97;60.67;47503.69;5019501;28;20166;-80
2023/09/16 10:10:16;;;;;;;22.48;16.75;;;;;;;-141.97;62.59;47449.88;5038937;28;20176;-81
2023/09/16 10:12:44;;;;;;;20.95;16.13;;;;;;;-141.97;62.23;47515.22;5039390;28;20173;-81
2023/09/16 10:15:11;;;;;;;23.02;17.40;;;;;;;-141.97;62.58;47307.66;5023798;28;20545;-82
2023/09/16 10:17:37;;;;;;;20.70;17.02;;;;;;;-141.97;61.57;47430.66;5034560;28;20312;-83
2023/09/16 10:20:03;;;;;;;21.80;17.45;;;;;;;-141.97;60.48;47490.25;5036339;28;20634;-82
2023/09/16 10:22:29;;;;;;;20.65;16.27;;;;;;;-141.97;60.21;47367.25;5036517;28;20190;-83
2023/09/16 10:24:55;;;;;;;21.67;16.40;;;;;;;-141.97;60.76;47413.38;5035890;28;20164;-82
2023/09/16 10:27:27;;;;;;;24.58;15.65;;;;;;;-141.97;60.19;47684.38;5035558;28;20166;-81
2023/09/16 10:29:55;;;;;;;18.35;15.32;;;;;;;-141.97;60.34;47257.69;5039255;28;20170;-81
2023/09/16 10:32:20;;;;;;;22.00;15.88;;;;;;;-141.97;60.20;47490.25;5037732;28;20159;-83
2023/09/16 10:34:48;;;;;;;21.38;16.13;;;;;;;-141.97;59.68;47676.69;5036251;28;20644;-82
2023/09/16 10:37:16;;;;;;;19.73;16.35;;;;;;;-141.97;58.69;47521.00;5035505;28;20262;-81
2023/09/16 10:39:45;;;;;;;19.83;15.27;;;;;;;-141.97;58.51;47380.69;5034096;28;20174;-81
2023/09/16 10:42:12;;;;;;;20.80;16.92;;;;;;;-141.97;60.44;47455.66;5039199;28;20208;-82
2023/09/16 10:44:39;;;;;;;20.88;16.90;;;;;;;-141.97;60.00;47434.50;5079703;28;20183;-82
2023/09/16 10:47:06;;;;;;;22.13;16.70;;;;;;;-141.97;59.58;47472.94;5084211;28;20169;-80
2023/09/16 10:49:31;;;;;;;23.35;19.20;;;;;;;-141.97;58.58;47326.88;5077371;28;20299;-82
2023/09/16 10:52:03;;;;;;;22.48;17.63;;;;;;;-141.97;58.67;47517.16;5059307;28;20179;-80
2023/09/16 10:54:57;;;;;;;20.73;17.83;;;;;;;-141.97;59.19;47511.38;5054351;28;20180;-81
2023/09/16 10:57:33;;;;;;;24.90;18.13;;;;;;;-141.97;58.49;47476.78;5044293;28;20177;-82
2023/09/16 11:00:01;;;;;;;27.00;19.42;;;;;;;-141.97;60.28;47440.28;5070213;28;20197;-79